Cullowhee, North Carolina
Current Conditions -  °F | °C
As of 2:54 AM on Wednesday 26 Nov 2014 (Local Time) from KAVL Reporting Station
Light Rain Light Rain  
Wind Chill: 39°   Ceiling: 3200
Heat Index: 42°   Visibility: 8mi
Dew Point: 40°   Wind: 5mph
Humidity: 92%   Direction: 10°N
Pressure: 29.97"   Gusts: NA
Location:  35.31°N, 83.18°W
Report Text: KAVL 260754Z AUTO 01004KT 8SM -RA OVC032 06/04 A2997 RMK AO2 PRESFR SLP144 P0009 T00560044
Loading
Personal Weather Stations






























Interactive Weather Map New forecast layout! Learn more

10-Day Weather Forecast

Advertisements
Track Severe Weather on mobile